Main page
METAR-TAF:

METAR-TAF

Airports :

Mary International Airport

Mary, Turkmenistan

latitude: 37-36-24N, longitude: 061-54-05E, elevation: 222 m

Current weather observation

The report was made 26 minutes ago, at 19:00 UTC
Wind 4 kt from the East
Temperature 7°C
Humidity 61%
Pressure 1028 hPa
Visibility: 6000 m

METAR: UTAM 171900Z 08004KT 6000 NSC 07/00 Q1028 NOSIG

Time: 00:26 (19:26 UTC)

Forecast

The report was made 2 hours and 56 minutes ago, at 16:30 UTC
Forecast valid from 17 at 18 UTC to 18 at 18 UTC
Wind 4 kt from variable directions
Visibility: 5000 m
Temporary
from 18 at 00 UTC to 18 at 05 UTC
Visibility: 2000 m
Scattered clouds at a height of 700 ft
mist
Becoming
from 18 at 05 UTC to 18 at 06 UTC
Visibility 10 km or more
no clouds below 1500 m and no cumulonimbus
Becoming
from 18 at 14 UTC to 18 at 15 UTC
Visibility: 5000 m

TAF: UTAM 171630Z 1718/1818 VRB04KT 5000 NSC 530005 TEMPO 1800/1805 2000 BR SCT007 BECMG 1805/1806 CAVOK BECMG 1814/1815 5000 NSC

Weather observations and forecasts of more than 4000 airports (METAR and TAF reports).

The available stations are represented by yellow and red dots on the map.

Hover mouse over dot to see the name of the station.

Then click to see weather observations and forecasts.

To change the map : click on the green buttons with a black cross to zoom in, on the green button with a dash to zoom out, or on the green arrows for adjacent maps.


METAR-TAF: